Jasper, AR (72641)

2:38 PM CST on November 20, 2014 (GMT -0600)
Parthenon AR | Change Station
CLOSE
Current Station
Personal Weather Station
Location: Parthenon, AR
Elevation: 1119 ft
Nearby Weather Stations

Elev 1119 ft 35.95 °N, 93.28 °W | Updated 11 minutes ago

Clear
Clear
59.6 °F
Feels Like 59.6 °F
N
1.0
Wind Variable Wind from SSE
Gusts 5.0 mph

Today
High -- | Low -- °F
--% Chance of Precip.
Yesterday
High -- | Low -- °F
Precip. -- in
6:54 AM 5:02 PM
Waning Crescent, 3% visible
Pressure 30.14 in
Visibility 10.0 miles
Clouds Clear
Dew Point 36 °F
Humidity 42%
Rainfall 0.00 in
Snow Depth Not available.
UV 3 out of 12
Pollen 1.70 out of 12
Air Quality Not available.
Flu Activity Not available.
METAR KHRO 201953Z AUTO 12009KT 10SM CLR 11/M04 A3013 RMK AO2 SLP207 T01111044

More Conditions Fewer Conditions

Pressure 30.14 in
Visibility 10.0 miles
Clouds Clear
Dew Point 36 °F
Humidity 42%
Rainfall 0.00 in
Snow Depth Not available.
UV 3 out of 12
Pollen 1.70 out of 12
Air Quality Not available.
Flu Activity Not available.
METAR KHRO 201953Z AUTO 12009KT 10SM CLR 11/M04 A3013 RMK AO2 SLP207 T01111044

More Conditions Fewer Conditions

10-Day Weather Forecast

Almanac

Astronomy

Nov. 20, 2014 Rise Set
Actual Time
Civil Twilight
Nautical Twilight
Astronomical Twilight
Moon
Length of Visible Light
Length of Day
Tomorrow will be .
, % of the Moon is Illuminated

Today's Extremes

State Highs State Lows

Community

WunderPhotos

Upload Photos

1,772,512 photos uploaded!

WunderBlogs® & News

Nearby

Air Quality

  Air Quality AQ Index Pollutant
Not available.

Snow Depth

Station Depth Elevation

Earthquake Activity

City Distance Mag. Time & Date
Minimum magnitude displayed is 2.5.

Coastal Water Temperatures

Place Temperature

Nearby Weather Stations